createdAt,value
2019-01-18T00:01:19.006Z,94.20
2019-01-18T00:03:49.366Z,94.00
2019-01-18T00:06:19.728Z,94.40
2019-01-18T00:08:50.395Z,93.70
2019-01-18T00:11:20.732Z,93.60
2019-01-18T00:13:51.070Z,93.60
2019-01-18T00:16:21.687Z,93.90
2019-01-18T00:18:52.291Z,93.30
2019-01-18T00:21:22.914Z,93.40
2019-01-18T00:23:53.484Z,94.00
2019-01-18T00:26:23.853Z,93.90
2019-01-18T00:28:54.224Z,93.30
2019-01-18T00:31:24.826Z,93.30
2019-01-18T00:33:55.433Z,93.10
2019-01-18T00:36:26.046Z,93.20
2019-01-18T00:38:57.045Z,92.40
2019-01-18T00:41:27.640Z,92.50
2019-01-18T00:43:58.537Z,92.30
2019-01-18T00:46:29.292Z,92.40
2019-01-18T00:48:59.632Z,92.50
2019-01-18T00:51:30.753Z,93.20
2019-01-18T00:54:01.302Z,93.40
2019-01-18T00:56:31.645Z,93.80
2019-01-18T00:59:02.540Z,94.20
2019-01-18T01:01:32.857Z,94.30
2019-01-18T01:04:03.208Z,94.70
2019-01-18T01:06:33.848Z,94.90
2019-01-18T01:09:06.058Z,94.90
2019-01-18T01:11:36.420Z,94.90
2019-01-18T01:14:06.752Z,95.50
2019-01-18T01:16:37.134Z,95.50
2019-01-18T01:19:07.726Z,94.00
2019-01-18T01:21:38.056Z,94.00
2019-01-18T01:24:08.393Z,93.80
2019-01-18T01:26:39.034Z,93.40
2019-01-18T01:29:09.371Z,93.00
2019-01-18T01:31:39.983Z,93.00
2019-01-18T01:34:10.880Z,93.40
2019-01-18T01:36:41.529Z,93.90
2019-01-18T01:39:11.934Z,94.10
2019-01-18T01:41:42.797Z,94.80
2019-01-18T01:44:13.534Z,94.90
2019-01-18T01:46:43.871Z,95.00
2019-01-18T01:49:14.533Z,94.50
2019-01-18T01:51:45.171Z,94.90
2019-01-18T01:54:15.504Z,94.80
2019-01-18T01:56:46.098Z,92.70
2019-01-18T01:59:16.707Z,94.00
2019-01-18T02:01:47.031Z,94.50
2019-01-18T02:04:17.684Z,94.60
2019-01-18T02:06:48.330Z,93.30
2019-01-18T02:09:18.676Z,93.70
2019-01-18T02:11:49.057Z,93.50
2019-01-18T02:14:19.626Z,93.00
2019-01-18T02:16:50.004Z,93.20
2019-01-18T02:19:20.644Z,93.20
2019-01-18T02:21:50.977Z,93.90
2019-01-18T02:24:21.379Z,93.60
2019-01-18T02:26:51.962Z,92.90
2019-01-18T02:29:22.596Z,90.80
2019-01-18T02:31:53.282Z,90.10
2019-01-18T02:34:23.651Z,87.90
2019-01-18T02:36:53.985Z,85.70
2019-01-18T02:39:24.490Z,88.40
2019-01-18T02:41:55.120Z,88.90
2019-01-18T02:44:25.771Z,90.00
2019-01-18T02:46:56.119Z,90.20
2019-01-18T02:49:26.509Z,90.20
2019-01-18T02:51:57.461Z,91.10
2019-01-18T02:54:27.809Z,92.00
2019-01-18T02:56:58.154Z,92.30
2019-01-18T02:59:28.523Z,93.20
2019-01-18T03:01:59.690Z,94.80
2019-01-18T03:04:30.209Z,96.60
2019-01-18T03:07:00.816Z,96.70
2019-01-18T03:09:31.180Z,96.70
2019-01-18T03:12:01.523Z,95.60
2019-01-18T03:14:31.904Z,95.10
2019-01-18T03:17:02.772Z,94.00
2019-01-18T03:19:33.440Z,93.40
2019-01-18T03:22:03.813Z,90.90
2019-01-18T03:24:34.162Z,92.70
2019-01-18T03:27:04.542Z,92.40
2019-01-18T03:29:35.063Z,92.90
2019-01-18T03:32:05.468Z,92.00
2019-01-18T03:34:35.792Z,92.00
2019-01-18T03:37:06.304Z,91.60
2019-01-18T03:39:36.912Z,91.60
2019-01-18T03:42:07.279Z,92.00
2019-01-18T03:44:37.720Z,91.70
2019-01-18T03:47:08.039Z,91.80
2019-01-18T03:49:38.651Z,91.30
2019-01-18T03:52:09.534Z,91.30
2019-01-18T03:54:39.927Z,91.70
2019-01-18T03:57:10.257Z,90.90
2019-01-18T03:59:40.879Z,90.60
2019-01-18T04:02:11.492Z,90.10
2019-01-18T04:04:41.866Z,90.10
2019-01-18T04:07:12.475Z,90.00
2019-01-18T04:09:42.860Z,88.80
2019-01-18T04:12:13.750Z,90.10
2019-01-18T04:14:44.123Z,90.10
2019-01-18T04:17:14.466Z,90.20
2019-01-18T04:19:45.350Z,90.20
2019-01-18T04:22:16.004Z,89.10
2019-01-18T04:24:46.342Z,90.20
2019-01-18T04:27:16.723Z,90.50
2019-01-18T04:29:47.340Z,90.90
2019-01-18T04:32:17.705Z,90.20
2019-01-18T04:34:48.280Z,85.60
2019-01-18T04:37:19.238Z,86.70
2019-01-18T04:39:50.516Z,87.40
2019-01-18T04:42:20.864Z,86.60
2019-01-18T04:44:51.211Z,85.90
2019-01-18T04:47:21.526Z,85.60
2019-01-18T04:49:51.895Z,86.10
2019-01-18T04:52:22.508Z,86.10
2019-01-18T04:54:53.477Z,82.70
2019-01-18T04:57:24.232Z,84.80
2019-01-18T04:59:54.894Z,83.30
2019-01-18T05:02:25.531Z,82.60
2019-01-18T05:04:56.141Z,73.80
2019-01-18T05:07:26.783Z,73.00
2019-01-18T05:09:57.118Z,72.40
2019-01-18T05:12:27.769Z,69.80
2019-01-18T05:14:58.402Z,72.20
2019-01-18T05:17:28.747Z,72.20
2019-01-18T05:19:59.403Z,72.90
2019-01-18T05:22:29.715Z,72.70
2019-01-18T05:25:00.039Z,75.00
2019-01-18T05:27:30.662Z,70.10
2019-01-18T05:30:01.067Z,72.00
2019-01-18T05:32:31.467Z,69.00
2019-01-18T05:35:01.817Z,70.50
2019-01-18T05:37:32.683Z,70.40
2019-01-18T05:40:03.292Z,70.30
2019-01-18T05:42:33.931Z,69.20
2019-01-18T05:45:07.919Z,68.50
2019-01-18T05:47:38.552Z,67.20
2019-01-18T05:50:13.196Z,67.90
2019-01-18T05:52:43.606Z,67.20
2019-01-18T05:55:14.189Z,63.40
2019-01-18T05:57:44.817Z,64.40
2019-01-18T06:00:38.008Z,65.00
2019-01-18T06:03:08.360Z,61.60
2019-01-18T06:05:40.991Z,62.00
2019-01-18T06:08:11.580Z,63.60
2019-01-18T06:10:41.952Z,62.80
2019-01-18T06:13:12.276Z,61.90
2019-01-18T06:15:42.645Z,61.30
2019-01-18T06:18:12.963Z,63.00
2019-01-18T06:20:43.688Z,62.90
2019-01-18T06:23:14.010Z,63.00
2019-01-18T06:25:44.354Z,65.50
2019-01-18T06:28:15.261Z,66.00
2019-01-18T06:30:45.647Z,65.70
2019-01-18T06:33:15.989Z,65.50
2019-01-18T06:35:46.313Z,65.70
2019-01-18T06:38:16.917Z,65.00
2019-01-18T06:40:48.524Z,65.60
2019-01-18T06:43:19.178Z,67.50
2019-01-18T06:45:50.023Z,66.30
2019-01-18T06:48:20.638Z,65.70
2019-01-18T06:50:50.979Z,65.10
2019-01-18T06:53:21.981Z,62.90
2019-01-18T06:55:52.563Z,63.50
2019-01-18T06:58:23.210Z,65.50
2019-01-18T07:00:54.493Z,65.00
2019-01-18T07:03:25.518Z,65.40
2019-01-18T07:05:55.889Z,65.20
2019-01-18T07:08:26.213Z,65.40
2019-01-18T07:10:56.613Z,67.20
2019-01-18T07:13:26.937Z,65.30
2019-01-18T07:15:57.295Z,66.60
2019-01-18T07:18:27.933Z,66.70
2019-01-18T07:20:58.858Z,67.30
2019-01-18T07:23:29.621Z,67.00
2019-01-18T07:25:59.910Z,66.30
2019-01-18T07:28:30.826Z,67.00
2019-01-18T07:31:01.247Z,65.90
2019-01-18T07:33:31.865Z,65.30
2019-01-18T07:36:02.213Z,65.90
2019-01-18T07:38:32.810Z,66.90
2019-01-18T07:41:03.723Z,66.40
2019-01-18T07:43:34.302Z,66.70
2019-01-18T07:46:04.950Z,66.40
2019-01-18T07:48:35.337Z,67.00
2019-01-18T07:51:05.944Z,67.00
2019-01-18T07:53:36.321Z,67.60
2019-01-18T07:56:07.007Z,65.70
2019-01-18T07:58:37.714Z,66.70
2019-01-18T08:01:08.036Z,64.90
2019-01-18T08:03:38.675Z,65.40
2019-01-18T08:06:09.266Z,64.80
2019-01-18T08:08:39.642Z,64.00
2019-01-18T08:11:09.980Z,63.50
2019-01-18T08:13:40.360Z,63.50
2019-01-18T08:16:10.766Z,63.50
2019-01-18T08:18:41.360Z,63.00
2019-01-18T08:21:12.097Z,62.40
2019-01-18T08:23:42.473Z,63.30
2019-01-18T08:26:13.080Z,64.10
2019-01-18T08:28:43.408Z,64.70
2019-01-18T08:31:13.795Z,63.60
2019-01-18T08:33:44.408Z,62.40
2019-01-18T08:36:14.737Z,62.40
2019-01-18T08:38:45.127Z,63.60
2019-01-18T08:41:15.450Z,64.40
2019-01-18T08:43:45.776Z,64.00
2019-01-18T08:46:16.508Z,65.40
2019-01-18T08:48:47.742Z,65.60
2019-01-18T08:51:18.088Z,66.30
2019-01-18T08:53:48.429Z,67.30
2019-01-18T08:56:19.039Z,68.30
2019-01-18T08:58:49.617Z,68.10
2019-01-18T09:01:19.990Z,68.70
2019-01-18T09:03:50.330Z,69.40
2019-01-18T09:06:21.024Z,69.20
2019-01-18T09:08:51.370Z,69.20
2019-01-18T09:11:22.157Z,69.70
2019-01-18T09:13:52.482Z,70.70
2019-01-18T09:16:22.848Z,70.70
2019-01-18T09:18:53.466Z,71.10
2019-01-18T09:21:23.789Z,71.20
2019-01-18T09:23:54.177Z,70.60
2019-01-18T09:26:24.765Z,70.30
2019-01-18T09:28:55.163Z,70.20
2019-01-18T09:31:25.502Z,69.60
2019-01-18T09:33:55.851Z,68.70
2019-01-18T09:36:26.450Z,68.00
2019-01-18T09:38:57.345Z,68.20
2019-01-18T09:41:27.694Z,69.50
2019-01-18T09:43:58.347Z,69.70
2019-01-18T09:46:29.041Z,67.70
2019-01-18T09:48:59.625Z,64.60
2019-01-18T09:51:31.227Z,65.20
2019-01-18T09:54:01.854Z,65.60
2019-01-18T09:56:32.460Z,63.60
2019-01-18T09:59:03.109Z,64.30
2019-01-18T10:01:33.420Z,63.70
2019-01-18T10:04:04.001Z,62.60
2019-01-18T10:06:34.372Z,63.70
2019-01-18T10:09:07.976Z,62.80
2019-01-18T10:11:38.943Z,63.80
2019-01-18T10:14:09.614Z,64.00
2019-01-18T10:16:40.231Z,62.10
2019-01-18T10:19:10.973Z,60.90
2019-01-18T10:21:41.793Z,58.80
2019-01-18T10:24:12.438Z,57.50
2019-01-18T10:26:42.835Z,57.40
2019-01-18T10:29:13.158Z,58.10
2019-01-18T10:31:44.004Z,57.60
2019-01-18T10:34:14.605Z,58.30
2019-01-18T10:36:45.391Z,57.30
2019-01-18T10:39:16.050Z,57.20
2019-01-18T10:41:46.534Z,56.00
2019-01-18T10:44:16.877Z,55.50
2019-01-18T10:46:47.786Z,55.50
2019-01-18T10:49:18.370Z,55.10
2019-01-18T10:51:48.934Z,54.40
2019-01-18T10:54:19.279Z,54.30
2019-01-18T10:56:49.631Z,53.60
2019-01-18T10:59:20.231Z,54.10
2019-01-18T11:01:50.573Z,51.30
2019-01-18T11:04:20.955Z,51.40
2019-01-18T11:06:51.295Z,52.00
2019-01-18T11:09:22.081Z,52.60
2019-01-18T11:11:52.442Z,51.40
2019-01-18T11:14:22.772Z,51.40
2019-01-18T11:16:53.147Z,50.20
2019-01-18T11:19:23.984Z,49.40
2019-01-18T11:21:54.866Z,48.90
2019-01-18T11:24:25.461Z,50.50
2019-01-18T11:26:55.812Z,51.10
2019-01-18T11:29:26.226Z,50.00
2019-01-18T11:31:56.854Z,50.60
2019-01-18T11:34:27.459Z,48.60
2019-01-18T11:36:58.273Z,47.30
2019-01-18T11:39:28.887Z,45.80
2019-01-18T11:41:59.235Z,47.40
2019-01-18T11:44:29.575Z,48.10
2019-01-18T11:46:59.941Z,49.40
2019-01-18T11:49:30.758Z,48.10
2019-01-18T11:52:01.413Z,49.30
2019-01-18T11:54:32.276Z,47.20
2019-01-18T11:57:02.666Z,48.10
2019-01-18T11:59:33.305Z,47.20
2019-01-18T12:02:03.648Z,47.10
2019-01-18T12:04:34.226Z,47.10
2019-01-18T12:07:04.632Z,47.60
2019-01-18T12:09:34.986Z,49.10
2019-01-18T12:12:05.334Z,49.10
2019-01-18T12:14:35.936Z,49.40
2019-01-18T12:17:06.835Z,49.00
2019-01-18T12:19:37.438Z,49.50
2019-01-18T12:22:08.425Z,47.20
2019-01-18T12:24:39.091Z,46.90
2019-01-18T12:27:09.732Z,46.30
2019-01-18T12:29:40.322Z,47.00
2019-01-18T12:32:11.075Z,46.90
2019-01-18T12:34:41.701Z,48.80
2019-01-18T12:37:12.165Z,49.10
2019-01-18T12:39:42.823Z,50.00
2019-01-18T12:42:13.694Z,49.60
2019-01-18T12:44:44.324Z,48.50
2019-01-18T12:47:14.935Z,47.00
2019-01-18T12:49:45.590Z,48.10
2019-01-18T12:52:16.349Z,49.80
2019-01-18T12:54:47.138Z,50.10
2019-01-18T12:57:17.478Z,50.00
2019-01-18T12:59:48.462Z,50.00
2019-01-18T13:02:18.805Z,46.90
2019-01-18T13:04:49.268Z,45.30
2019-01-18T13:07:19.868Z,46.10
2019-01-18T13:09:50.464Z,46.80
2019-01-18T13:12:20.889Z,45.50
2019-01-18T13:14:51.408Z,46.20
2019-01-18T13:17:22.112Z,46.80
2019-01-18T13:19:52.808Z,48.10
2019-01-18T13:22:26.103Z,49.00
2019-01-18T13:24:56.194Z,48.70
2019-01-18T13:27:26.768Z,49.20
2019-01-18T13:29:57.158Z,48.80
2019-01-18T13:32:27.773Z,46.20
2019-01-18T13:34:58.409Z,46.80
2019-01-18T13:37:28.725Z,46.80
2019-01-18T13:39:59.063Z,45.80
2019-01-18T13:42:29.759Z,44.80
2019-01-18T13:45:00.195Z,44.40
2019-01-18T13:47:30.534Z,42.00
2019-01-18T13:50:01.501Z,41.60
2019-01-18T13:52:31.845Z,43.40
2019-01-18T13:55:02.189Z,42.80
2019-01-18T13:57:32.577Z,44.40
2019-01-18T14:00:03.285Z,44.60
2019-01-18T14:02:33.633Z,45.10
2019-01-18T14:05:05.734Z,44.60
2019-01-18T14:07:36.368Z,45.50
2019-01-18T14:10:16.933Z,46.50
2019-01-18T14:12:47.300Z,47.10
2019-01-18T14:15:19.530Z,46.50
2019-01-18T14:17:50.492Z,46.40
2019-01-18T14:20:23.642Z,46.90
2019-01-18T14:22:53.991Z,46.30
2019-01-18T14:25:24.365Z,47.40
2019-01-18T14:27:55.300Z,47.30
2019-01-18T14:30:29.089Z,47.30
2019-01-18T14:32:59.429Z,46.50
2019-01-18T14:35:30.088Z,47.40
2019-01-18T14:38:00.648Z,48.80
2019-01-18T14:40:31.295Z,49.10
2019-01-18T14:43:01.668Z,49.60
2019-01-18T14:45:43.706Z,49.30
2019-01-18T14:48:14.398Z,50.30
2019-01-18T14:50:45.407Z,49.10
2019-01-18T14:53:15.747Z,49.90
2019-01-18T14:55:47.160Z,50.70
2019-01-18T14:58:18.067Z,50.70
2019-01-18T15:00:48.730Z,51.70
2019-01-18T15:03:19.071Z,52.80
2019-01-18T15:05:49.451Z,52.80
2019-01-18T15:08:24.211Z,53.20
2019-01-18T15:10:52.207Z,53.70
2019-01-18T15:13:23.103Z,54.00
2019-01-18T15:15:53.703Z,54.40
2019-01-18T15:18:24.321Z,54.80
2019-01-18T15:20:54.667Z,55.20
2019-01-18T15:23:25.555Z,56.30
2019-01-18T15:25:55.910Z,56.30
2019-01-18T15:28:26.810Z,57.90
2019-01-18T15:30:57.269Z,58.00
2019-01-18T15:33:28.154Z,59.30
2019-01-18T15:35:58.525Z,59.00
2019-01-18T15:38:29.115Z,60.20
2019-01-18T15:41:00.213Z,61.30
2019-01-18T15:43:31.330Z,62.50
2019-01-18T15:46:01.730Z,64.00
2019-01-18T15:48:32.304Z,64.70
2019-01-18T15:51:03.550Z,65.00
2019-01-18T15:53:34.422Z,65.20
2019-01-18T15:56:05.324Z,65.90
2019-01-18T15:58:35.713Z,65.60
2019-01-18T16:01:06.048Z,65.70
2019-01-18T16:03:36.370Z,66.40
2019-01-18T16:06:06.752Z,67.20
2019-01-18T16:08:37.396Z,67.20
2019-01-18T16:11:07.741Z,67.80
2019-01-18T16:13:38.355Z,68.50
2019-01-18T16:16:13.907Z,68.00
2019-01-18T16:18:44.286Z,68.00
2019-01-18T16:21:15.274Z,68.00
2019-01-18T16:23:45.937Z,68.10
2019-01-18T16:26:16.592Z,67.80
2019-01-18T16:28:47.000Z,67.80
2019-01-18T16:31:17.374Z,66.60
2019-01-18T16:33:47.725Z,66.50
2019-01-18T16:36:18.111Z,67.00
2019-01-18T16:38:48.434Z,66.60
2019-01-18T16:41:19.304Z,66.20
2019-01-18T16:43:49.993Z,66.20
2019-01-18T16:46:20.352Z,66.20
2019-01-18T16:48:50.918Z,66.10
2019-01-18T16:51:21.406Z,65.80
2019-01-18T16:53:51.755Z,65.90
2019-01-18T16:56:22.092Z,65.60
2019-01-18T16:58:52.729Z,66.40
2019-01-18T17:01:23.101Z,65.40
2019-01-18T17:03:54.073Z,64.00
2019-01-18T17:06:24.481Z,63.90
2019-01-18T17:08:55.358Z,64.00
2019-01-18T17:11:25.747Z,64.00
2019-01-18T17:13:56.363Z,64.00
2019-01-18T17:16:26.982Z,64.10
2019-01-18T17:18:57.446Z,64.10
2019-01-18T17:21:27.825Z,64.20
2019-01-18T17:23:58.931Z,64.20
2019-01-18T17:26:29.524Z,65.30
2019-01-18T17:29:01.806Z,66.30
2019-01-18T17:31:32.186Z,66.20
2019-01-18T17:34:02.522Z,66.50
2019-01-18T17:36:32.842Z,67.70
2019-01-18T17:39:20.193Z,67.30
2019-01-18T17:42:07.170Z,68.00
2019-01-18T17:44:51.102Z,70.00
2019-01-18T17:47:29.019Z,71.60
2019-01-18T17:50:35.850Z,72.10
2019-01-18T17:53:37.779Z,72.00
2019-01-18T17:56:15.946Z,72.70
2019-01-18T17:59:11.723Z,72.80
2019-01-18T18:02:07.897Z,73.40
2019-01-18T18:04:57.575Z,73.50
2019-01-18T18:07:44.422Z,72.30
2019-01-18T18:10:28.724Z,71.50
2019-01-18T18:13:29.506Z,72.00
2019-01-18T18:16:10.395Z,72.80
2019-01-18T18:19:12.585Z,73.00
2019-01-18T18:22:19.407Z,73.60
2019-01-18T18:24:54.927Z,72.40
2019-01-18T18:27:50.903Z,72.40
2019-01-18T18:30:32.604Z,73.50
2019-01-18T18:33:13.720Z,73.90
2019-01-18T18:36:14.225Z,78.00
2019-01-18T18:39:00.974Z,82.10
2019-01-18T18:42:07.339Z,85.00
2019-01-18T18:45:04.669Z,86.40
2019-01-18T18:48:00.806Z,86.80
2019-01-18T18:50:53.773Z,86.10
2019-01-18T18:53:35.044Z,85.00
2019-01-18T18:56:25.286Z,84.60
2019-01-18T18:59:11.949Z,83.10
2019-01-18T19:02:04.671Z,82.80
2019-01-18T19:04:45.354Z,83.10
2019-01-18T19:07:43.342Z,83.90
2019-01-18T19:10:42.309Z,83.10
2019-01-18T19:13:28.225Z,83.90
2019-01-18T19:16:36.143Z,83.60
2019-01-18T19:19:32.138Z,83.70
2019-01-18T19:22:27.660Z,83.20
2019-01-18T19:25:44.392Z,83.70
2019-01-18T19:28:19.687Z,84.00
2019-01-18T19:31:12.666Z,84.60
2019-01-18T19:34:04.344Z,84.90
2019-01-18T19:37:15.216Z,84.50
2019-01-18T19:40:07.890Z,84.30
2019-01-18T19:43:02.205Z,83.20
2019-01-18T19:46:04.029Z,82.80
2019-01-18T19:48:51.119Z,82.20
2019-01-18T19:51:54.711Z,83.20
2019-01-18T19:54:44.613Z,81.20
2019-01-18T19:57:40.480Z,82.60
2019-01-18T20:00:42.612Z,82.70
2019-01-18T20:03:51.306Z,83.10
2019-01-18T20:06:47.968Z,84.60
2019-01-18T20:09:29.327Z,84.40
2019-01-18T20:12:07.260Z,84.40
2019-01-18T20:14:57.146Z,84.30
2019-01-18T20:17:53.239Z,84.00
2019-01-18T20:20:50.851Z,83.90
2019-01-18T20:24:02.812Z,84.10
2019-01-18T20:26:47.242Z,83.20
2019-01-18T20:29:41.777Z,83.20
2019-01-18T20:32:25.936Z,83.80
2019-01-18T20:35:01.485Z,83.50
2019-01-18T20:38:00.266Z,83.90
2019-01-18T20:40:53.219Z,83.30
2019-01-18T20:43:43.323Z,83.30
2019-01-18T20:46:41.613Z,83.30
2019-01-18T20:49:18.045Z,83.40
2019-01-18T20:52:15.666Z,82.70
2019-01-18T20:55:15.885Z,82.60
2019-01-18T20:58:28.665Z,82.30
2019-01-18T21:01:18.021Z,81.60
2019-01-18T21:03:58.974Z,82.60
2019-01-18T21:06:58.030Z,83.40
2019-01-18T21:09:45.530Z,83.70
2019-01-18T21:12:58.467Z,83.90
2019-01-18T21:15:43.068Z,82.20
2019-01-18T21:18:33.369Z,82.00
2019-01-18T21:21:38.416Z,79.90
2019-01-18T21:24:56.664Z,79.10
2019-01-18T21:27:32.301Z,79.10
2019-01-18T21:30:25.052Z,78.90
2019-01-18T21:33:09.159Z,80.40
2019-01-18T21:35:44.499Z,80.70
2019-01-18T21:38:43.052Z,80.90
2019-01-18T21:41:14.736Z,80.60
2019-01-18T21:44:14.938Z,81.20
2019-01-18T21:46:55.792Z,81.80
2019-01-18T21:49:40.182Z,81.60
2019-01-18T21:52:27.808Z,81.40
2019-01-18T21:55:22.360Z,80.50
2019-01-18T21:58:20.711Z,80.30
2019-01-18T22:01:18.822Z,80.70
2019-01-18T22:04:08.101Z,80.40
2019-01-18T22:06:57.910Z,80.80
2019-01-18T22:09:39.361Z,80.80
2019-01-18T22:12:23.344Z,80.70
2019-01-18T22:15:18.018Z,80.20
2019-01-18T22:18:08.063Z,80.90
2019-01-18T22:21:18.097Z,80.30
2019-01-18T22:24:08.132Z,79.80
2019-01-18T22:26:58.584Z,78.10
2019-01-18T22:29:45.780Z,78.40
2019-01-18T22:32:32.669Z,78.30
2019-01-18T22:35:26.895Z,76.50
2019-01-18T22:38:05.163Z,75.50
2019-01-18T22:40:58.026Z,74.20
2019-01-18T22:43:33.497Z,74.20
2019-01-18T22:46:08.769Z,73.10
2019-01-18T22:48:46.809Z,73.40
2019-01-18T22:51:38.924Z,73.90
2019-01-18T22:54:20.105Z,70.20
2019-01-18T22:57:22.017Z,71.10
2019-01-18T23:00:16.667Z,72.20
2019-01-18T23:03:00.406Z,72.90
2019-01-18T23:06:05.549Z,73.70
2019-01-18T23:08:41.582Z,74.00
2019-01-18T23:11:22.386Z,71.50
2019-01-18T23:14:16.736Z,73.00
2019-01-18T23:17:03.234Z,72.70
2019-01-18T23:20:05.334Z,70.20
2019-01-18T23:23:04.405Z,71.00
2019-01-18T23:25:54.573Z,72.10
2019-01-18T23:28:44.879Z,71.20
2019-01-18T23:31:22.793Z,69.40
2019-01-18T23:33:58.681Z,68.60
2019-01-18T23:36:51.265Z,67.90
2019-01-18T23:39:46.993Z,68.40
2019-01-18T23:42:39.806Z,67.40
2019-01-18T23:45:26.053Z,66.30
2019-01-18T23:48:29.156Z,66.30
2019-01-18T23:51:36.006Z,67.10
2019-01-18T23:54:51.774Z,67.00
2019-01-18T23:57:50.614Z,67.50
